sensor_id;sensor_type;location;lat;lon;timestamp;pressure;altitude;pressure_sealevel;temperature;humidity
73910;BME280;62245;48.070;7.874;2022-08-21T00:02:26;99208.19;;;19.02;70.10
73910;BME280;62245;48.070;7.874;2022-08-21T00:04:52;99201.69;;;19.03;69.95
73910;BME280;62245;48.070;7.874;2022-08-21T00:07:19;99206.00;;;19.04;69.99
73910;BME280;62245;48.070;7.874;2022-08-21T00:09:45;99198.47;;;19.06;69.88
73910;BME280;62245;48.070;7.874;2022-08-21T00:12:10;99190.59;;;19.05;69.75
73910;BME280;62245;48.070;7.874;2022-08-21T00:14:36;99206.31;;;19.08;69.42
73910;BME280;62245;48.070;7.874;2022-08-21T00:17:02;99209.84;;;19.13;69.63
73910;BME280;62245;48.070;7.874;2022-08-21T00:19:28;99200.94;;;19.13;69.75
73910;BME280;62245;48.070;7.874;2022-08-21T00:21:54;99206.34;;;19.13;69.48
73910;BME280;62245;48.070;7.874;2022-08-21T00:24:21;99200.91;;;19.08;69.27
73910;BME280;62245;48.070;7.874;2022-08-21T00:26:47;99196.56;;;19.07;69.67
73910;BME280;62245;48.070;7.874;2022-08-21T00:29:15;99201.16;;;19.06;69.42
73910;BME280;62245;48.070;7.874;2022-08-21T00:31:42;99195.75;;;19.06;69.28
73910;BME280;62245;48.070;7.874;2022-08-21T00:34:08;99191.97;;;19.07;69.55
73910;BME280;62245;48.070;7.874;2022-08-21T00:36:35;99191.69;;;19.04;69.14
73910;BME280;62245;48.070;7.874;2022-08-21T00:39:01;99189.50;;;19.01;69.29
73910;BME280;62245;48.070;7.874;2022-08-21T00:41:27;99177.56;;;18.92;69.15
73910;BME280;62245;48.070;7.874;2022-08-21T00:43:53;99173.44;;;18.84;69.16
73910;BME280;62245;48.070;7.874;2022-08-21T00:46:19;99184.06;;;18.96;69.17
73910;BME280;62245;48.070;7.874;2022-08-21T00:48:44;99185.41;;;18.93;68.83
73910;BME280;62245;48.070;7.874;2022-08-21T00:51:14;99184.63;;;18.98;68.67
73910;BME280;62245;48.070;7.874;2022-08-21T00:53:42;99174.88;;;18.97;68.83
73910;BME280;62245;48.070;7.874;2022-08-21T00:56:10;99168.91;;;18.95;68.60
73910;BME280;62245;48.070;7.874;2022-08-21T00:58:39;99178.66;;;18.96;68.71
73910;BME280;62245;48.070;7.874;2022-08-21T01:01:07;99170.47;;;18.85;68.98
73910;BME280;62245;48.070;7.874;2022-08-21T01:03:34;99179.13;;;18.88;69.36
73910;BME280;62245;48.070;7.874;2022-08-21T01:05:59;99168.84;;;18.84;68.92
73910;BME280;62245;48.070;7.874;2022-08-21T01:08:25;99171.00;;;18.82;68.97
73910;BME280;62245;48.070;7.874;2022-08-21T01:10:52;99170.69;;;18.79;69.26
73910;BME280;62245;48.070;7.874;2022-08-21T01:13:19;99172.56;;;18.73;69.12
73910;BME280;62245;48.070;7.874;2022-08-21T01:15:46;99173.06;;;18.70;69.27
73910;BME280;62245;48.070;7.874;2022-08-21T01:18:14;99181.69;;;18.67;69.05
73910;BME280;62245;48.070;7.874;2022-08-21T01:20:43;99181.66;;;18.62;69.03
73910;BME280;62245;48.070;7.874;2022-08-21T01:23:09;99177.84;;;18.58;69.17
73910;BME280;62245;48.070;7.874;2022-08-21T01:25:35;99177.84;;;18.58;69.27
73910;BME280;62245;48.070;7.874;2022-08-21T01:28:11;99169.75;;;18.58;69.24
73910;BME280;62245;48.070;7.874;2022-08-21T01:30:37;99176.69;;;18.54;69.54
73910;BME280;62245;48.070;7.874;2022-08-21T01:33:03;99174.53;;;18.56;69.18
73910;BME280;62245;48.070;7.874;2022-08-21T01:35:29;99176.44;;;18.56;69.31
73910;BME280;62245;48.070;7.874;2022-08-21T01:38:06;99166.13;;;18.53;69.14
73910;BME280;62245;48.070;7.874;2022-08-21T01:40:34;99178.09;;;18.57;69.36
73910;BME280;62245;48.070;7.874;2022-08-21T01:43:00;99172.88;;;18.50;68.93
73910;BME280;62245;48.070;7.874;2022-08-21T01:45:25;99177.75;;;18.53;68.91
73910;BME280;62245;48.070;7.874;2022-08-21T01:47:51;99169.09;;;18.51;68.80
73910;BME280;62245;48.070;7.874;2022-08-21T01:50:19;99165.75;;;18.39;68.91
73910;BME280;62245;48.070;7.874;2022-08-21T01:52:44;99164.44;;;18.41;68.96
73910;BME280;62245;48.070;7.874;2022-08-21T01:55:11;99157.09;;;18.37;68.86
73910;BME280;62245;48.070;7.874;2022-08-21T01:57:37;99159.84;;;18.42;68.87
73910;BME280;62245;48.070;7.874;2022-08-21T02:00:06;99151.19;;;18.40;68.86
73910;BME280;62245;48.070;7.874;2022-08-21T02:02:31;99153.34;;;18.43;69.03
73910;BME280;62245;48.070;7.874;2022-08-21T02:04:57;99160.34;;;18.39;69.01
73910;BME280;62245;48.070;7.874;2022-08-21T02:07:22;99166.25;;;18.36;68.95
73910;BME280;62245;48.070;7.874;2022-08-21T02:09:48;99166.00;;;18.37;69.26
73910;BME280;62245;48.070;7.874;2022-08-21T02:12:13;99169.19;;;18.29;69.25
73910;BME280;62245;48.070;7.874;2022-08-21T02:14:38;99158.13;;;18.31;69.34
73910;BME280;62245;48.070;7.874;2022-08-21T02:17:04;99150.19;;;18.19;69.62
73910;BME280;62245;48.070;7.874;2022-08-21T02:19:29;99152.28;;;18.12;69.86
73910;BME280;62245;48.070;7.874;2022-08-21T02:21:54;99163.22;;;18.00;70.51
73910;BME280;62245;48.070;7.874;2022-08-21T02:24:20;99149.97;;;17.99;70.45
73910;BME280;62245;48.070;7.874;2022-08-21T02:26:45;99151.31;;;17.96;70.45
73910;BME280;62245;48.070;7.874;2022-08-21T02:29:10;99142.69;;;17.99;70.50
73910;BME280;62245;48.070;7.874;2022-08-21T02:31:35;99153.56;;;18.04;70.22
73910;BME280;62245;48.070;7.874;2022-08-21T02:34:01;99153.00;;;18.02;70.51
73910;BME280;62245;48.070;7.874;2022-08-21T02:36:26;99138.66;;;18.02;70.43
73910;BME280;62245;48.070;7.874;2022-08-21T02:38:52;99139.50;;;18.02;70.32
73910;BME280;62245;48.070;7.874;2022-08-21T02:41:19;99143.78;;;17.98;70.38
73910;BME280;62245;48.070;7.874;2022-08-21T02:43:45;99147.81;;;17.96;70.26
73910;BME280;62245;48.070;7.874;2022-08-21T02:46:14;99143.72;;;17.93;70.51
73910;BME280;62245;48.070;7.874;2022-08-21T02:48:40;99138.19;;;17.83;70.53
73910;BME280;62245;48.070;7.874;2022-08-21T02:51:09;99137.66;;;17.81;70.91
73910;BME280;62245;48.070;7.874;2022-08-21T02:53:36;99143.81;;;17.77;70.72
73910;BME280;62245;48.070;7.874;2022-08-21T02:56:05;99140.25;;;17.71;71.04
73910;BME280;62245;48.070;7.874;2022-08-21T02:58:36;99141.59;;;17.73;71.11
73910;BME280;62245;48.070;7.874;2022-08-21T03:01:02;99142.13;;;17.70;71.09
73910;BME280;62245;48.070;7.874;2022-08-21T03:03:28;99142.38;;;17.69;70.99
73910;BME280;62245;48.070;7.874;2022-08-21T03:05:54;99143.19;;;17.69;70.94
73910;BME280;62245;48.070;7.874;2022-08-21T03:11:02;99134.78;;;17.66;71.06
73910;BME280;62245;48.070;7.874;2022-08-21T03:13:28;99141.81;;;17.67;71.01
73910;BME280;62245;48.070;7.874;2022-08-21T03:15:54;99131.53;;;17.64;70.86
73910;BME280;62245;48.070;7.874;2022-08-21T03:18:19;99129.09;;;17.62;70.86
73910;BME280;62245;48.070;7.874;2022-08-21T03:20:45;99139.53;;;17.59;71.25
73910;BME280;62245;48.070;7.874;2022-08-21T03:23:11;99128.63;;;17.49;71.30
73910;BME280;62245;48.070;7.874;2022-08-21T03:25:37;99141.84;;;17.50;71.67
73910;BME280;62245;48.070;7.874;2022-08-21T03:28:05;99141.81;;;17.45;71.73
73910;BME280;62245;48.070;7.874;2022-08-21T03:30:30;99141.59;;;17.52;nan
73910;BME280;62245;48.070;7.874;2022-08-21T03:33:04;99126.81;;;17.54;71.17
73910;BME280;62245;48.070;7.874;2022-08-21T03:35:30;99136.22;;;17.52;71.02
73910;BME280;62245;48.070;7.874;2022-08-21T03:37:55;99135.16;;;17.53;71.08
73910;BME280;62245;48.070;7.874;2022-08-21T03:40:21;99131.44;;;17.59;70.60
73910;BME280;62245;48.070;7.874;2022-08-21T03:42:47;99129.91;;;17.63;70.52
73910;BME280;62245;48.070;7.874;2022-08-21T03:45:14;99126.16;;;17.64;70.52
73910;BME280;62245;48.070;7.874;2022-08-21T03:47:54;99125.78;;;17.60;70.60
73910;BME280;62245;48.070;7.874;2022-08-21T03:50:21;99130.88;;;17.57;70.64
73910;BME280;62245;48.070;7.874;2022-08-21T03:52:46;99132.19;;;17.54;70.63
73910;BME280;62245;48.070;7.874;2022-08-21T03:55:12;99135.53;;;17.61;70.44
73910;BME280;62245;48.070;7.874;2022-08-21T03:57:37;99129.31;;;17.61;70.19
73910;BME280;62245;48.070;7.874;2022-08-21T04:00:03;99134.25;;;17.64;70.54
73910;BME280;62245;48.070;7.874;2022-08-21T04:02:29;99134.13;;;17.59;70.16
73910;BME280;62245;48.070;7.874;2022-08-21T04:04:55;99147.06;;;17.57;70.44
73910;BME280;62245;48.070;7.874;2022-08-21T04:07:20;99142.19;;;17.54;70.50
73910;BME280;62245;48.070;7.874;2022-08-21T04:09:46;99140.22;;;17.49;70.38
73910;BME280;62245;48.070;7.874;2022-08-21T04:12:11;99134.56;;;17.51;70.72
73910;BME280;62245;48.070;7.874;2022-08-21T04:14:36;99147.00;;;17.52;70.38
73910;BME280;62245;48.070;7.874;2022-08-21T04:17:02;99145.38;;;17.51;70.40
73910;BME280;62245;48.070;7.874;2022-08-21T04:19:27;99142.06;;;17.44;70.56
73910;BME280;62245;48.070;7.874;2022-08-21T04:21:52;99137.97;;;17.41;70.63
73910;BME280;62245;48.070;7.874;2022-08-21T04:24:18;99137.97;;;17.41;70.78
73910;BME280;62245;48.070;7.874;2022-08-21T04:26:44;99137.16;;;17.41;70.70
73910;BME280;62245;48.070;7.874;2022-08-21T04:29:09;99148.19;;;17.39;70.48
73910;BME280;62245;48.070;7.874;2022-08-21T04:31:35;99151.41;;;17.36;70.70
73910;BME280;62245;48.070;7.874;2022-08-21T04:34:02;99149.53;;;17.37;70.77
73910;BME280;62245;48.070;7.874;2022-08-21T04:36:28;99156.22;;;17.34;70.76
73910;BME280;62245;48.070;7.874;2022-08-21T04:38:54;99159.41;;;17.31;70.88
73910;BME280;62245;48.070;7.874;2022-08-21T04:41:19;99165.38;;;17.33;70.85
73910;BME280;62245;48.070;7.874;2022-08-21T04:43:44;99160.22;;;17.31;70.90
73910;BME280;62245;48.070;7.874;2022-08-21T04:46:10;99162.91;;;17.31;71.02
73910;BME280;62245;48.070;7.874;2022-08-21T04:48:35;99160.75;;;17.28;71.03
73910;BME280;62245;48.070;7.874;2022-08-21T04:53:41;99161.47;;;17.24;70.98
73910;BME280;62245;48.070;7.874;2022-08-21T04:56:19;99176.59;;;17.25;71.33
73910;BME280;62245;48.070;7.874;2022-08-21T04:58:46;99163.06;;;17.20;71.64
73910;BME280;62245;48.070;7.874;2022-08-21T05:01:19;99173.47;;;17.33;71.30
73910;BME280;62245;48.070;7.874;2022-08-21T05:03:48;99166.69;;;17.30;71.31
73910;BME280;62245;48.070;7.874;2022-08-21T05:06:15;99160.22;;;17.31;71.39
73910;BME280;62245;48.070;7.874;2022-08-21T05:08:42;99169.38;;;17.30;71.36
73910;BME280;62245;48.070;7.874;2022-08-21T05:11:09;99183.81;;;17.41;70.93
73910;BME280;62245;48.070;7.874;2022-08-21T05:13:35;99187.44;;;17.30;70.25
73910;BME280;62245;48.070;7.874;2022-08-21T05:16:00;99183.25;;;17.39;70.57
73910;BME280;62245;48.070;7.874;2022-08-21T05:18:26;99182.44;;;17.39;70.37
73910;BME280;62245;48.070;7.874;2022-08-21T05:20:51;99185.78;;;17.46;70.50
73910;BME280;62245;48.070;7.874;2022-08-21T05:23:16;99178.66;;;17.40;70.58
73910;BME280;62245;48.070;7.874;2022-08-21T05:25:42;99180.94;;;17.48;70.69
73910;BME280;62245;48.070;7.874;2022-08-21T05:28:08;99186.41;;;17.53;70.96
73910;BME280;62245;48.070;7.874;2022-08-21T05:30:34;99187.22;;;17.53;70.55
73910;BME280;62245;48.070;7.874;2022-08-21T05:33:02;99187.78;;;17.55;70.47
73910;BME280;62245;48.070;7.874;2022-08-21T05:35:29;99178.38;;;17.58;70.27
73910;BME280;62245;48.070;7.874;2022-08-21T05:37:55;99183.88;;;17.63;70.37
73910;BME280;62245;48.070;7.874;2022-08-21T05:40:21;99183.88;;;17.63;70.50
73910;BME280;62245;48.070;7.874;2022-08-21T05:42:46;99182.34;;;17.72;69.79
73910;BME280;62245;48.070;7.874;2022-08-21T05:45:11;99179.59;;;17.67;70.11
73910;BME280;62245;48.070;7.874;2022-08-21T05:47:37;99177.78;;;17.73;69.85
73910;BME280;62245;48.070;7.874;2022-08-21T05:50:03;99177.25;;;17.76;69.64
73910;BME280;62245;48.070;7.874;2022-08-21T05:52:28;99171.50;;;17.67;70.29
73910;BME280;62245;48.070;7.874;2022-08-21T05:54:53;99179.13;;;17.75;69.95
73910;BME280;62245;48.070;7.874;2022-08-21T05:57:20;99176.97;;;17.72;69.75
73910;BME280;62245;48.070;7.874;2022-08-21T05:59:46;99181.59;;;17.77;68.98
73910;BME280;62245;48.070;7.874;2022-08-21T06:02:12;99176.97;;;17.72;69.25
73910;BME280;62245;48.070;7.874;2022-08-21T06:04:38;99182.97;;;17.79;68.96
73910;BME280;62245;48.070;7.874;2022-08-21T06:07:04;99173.81;;;17.80;69.17
73910;BME280;62245;48.070;7.874;2022-08-21T06:09:30;99172.91;;;17.96;68.88
73910;BME280;62245;48.070;7.874;2022-08-21T06:11:55;99166.44;;;17.97;68.77
73910;BME280;62245;48.070;7.874;2022-08-21T06:14:20;99170.81;;;18.03;68.96
73910;BME280;62245;48.070;7.874;2022-08-21T06:16:46;99164.28;;;17.99;68.91
73910;BME280;62245;48.070;7.874;2022-08-21T06:19:11;99168.44;;;18.07;68.82
73910;BME280;62245;48.070;7.874;2022-08-21T06:21:37;99165.41;;;18.03;68.05
73910;BME280;62245;48.070;7.874;2022-08-21T06:24:02;99172.81;;;18.13;67.92
73910;BME280;62245;48.070;7.874;2022-08-21T06:26:29;99169.31;;;18.18;67.91
73910;BME280;62245;48.070;7.874;2022-08-21T06:28:54;99165.56;;;18.19;67.33
73910;BME280;62245;48.070;7.874;2022-08-21T06:31:22;99164.81;;;18.23;66.87
73910;BME280;62245;48.070;7.874;2022-08-21T06:33:48;99164.59;;;18.30;67.68
73910;BME280;62245;48.070;7.874;2022-08-21T06:36:14;99173.63;;;18.40;67.73
73910;BME280;62245;48.070;7.874;2022-08-21T06:38:39;99171.19;;;18.44;67.75
73910;BME280;62245;48.070;7.874;2022-08-21T06:41:05;99168.00;;;18.47;67.73
73910;BME280;62245;48.070;7.874;2022-08-21T06:43:32;99162.34;;;18.48;67.19
73910;BME280;62245;48.070;7.874;2022-08-21T06:45:57;99167.47;;;18.50;67.50
73910;BME280;62245;48.070;7.874;2022-08-21T06:48:23;99173.16;;;18.54;67.45
73910;BME280;62245;48.070;7.874;2022-08-21T06:50:48;99165.31;;;18.52;67.11
73910;BME280;62245;48.070;7.874;2022-08-21T06:53:17;99168.66;;;18.59;67.00
73910;BME280;62245;48.070;7.874;2022-08-21T06:55:43;99175.97;;;18.59;66.89
73910;BME280;62245;48.070;7.874;2022-08-21T06:58:09;99171.41;;;18.64;67.07
73910;BME280;62245;48.070;7.874;2022-08-21T07:00:38;99172.78;;;18.67;66.81
73910;BME280;62245;48.070;7.874;2022-08-21T07:03:04;99176.59;;;18.71;66.95
73910;BME280;62245;48.070;7.874;2022-08-21T07:05:30;99173.59;;;18.67;66.87
73910;BME280;62245;48.070;7.874;2022-08-21T07:07:59;99171.16;;;18.66;66.59
73910;BME280;62245;48.070;7.874;2022-08-21T07:10:30;99170.69;;;18.79;66.51
73910;BME280;62245;48.070;7.874;2022-08-21T07:12:55;99169.69;;;18.85;66.81
73910;BME280;62245;48.070;7.874;2022-08-21T07:15:20;99178.53;;;18.80;66.76
73910;BME280;62245;48.070;7.874;2022-08-21T07:17:46;99172.56;;;18.78;65.39
73910;BME280;62245;48.070;7.874;2022-08-21T07:20:11;99169.38;;;18.87;65.68
73910;BME280;62245;48.070;7.874;2022-08-21T07:22:37;99173.81;;;19.03;65.75
73910;BME280;62245;48.070;7.874;2022-08-21T07:25:04;99163.06;;;19.08;64.29
73910;BME280;62245;48.070;7.874;2022-08-21T07:27:30;99179.34;;;19.23;64.08
73910;BME280;62245;48.070;7.874;2022-08-21T07:29:56;99182.91;;;19.29;62.98
73910;BME280;62245;48.070;7.874;2022-08-21T07:32:22;99179.69;;;19.32;62.92
73910;BME280;62245;48.070;7.874;2022-08-21T07:34:47;99171.59;;;19.37;63.03
73910;BME280;62245;48.070;7.874;2022-08-21T07:37:12;99175.09;;;19.37;62.46
73910;BME280;62245;48.070;7.874;2022-08-21T07:39:38;99176.81;;;19.48;62.10
73910;BME280;62245;48.070;7.874;2022-08-21T07:42:03;99169.81;;;19.52;61.37
73910;BME280;62245;48.070;7.874;2022-08-21T07:44:29;99170.88;;;19.56;62.22
73910;BME280;62245;48.070;7.874;2022-08-21T07:46:54;99166.75;;;19.44;62.58
73910;BME280;62245;48.070;7.874;2022-08-21T07:49:19;99176.00;;;19.48;62.62
73910;BME280;62245;48.070;7.874;2022-08-21T07:51:44;99172.00;;;19.61;62.59
73910;BME280;62245;48.070;7.874;2022-08-21T07:54:10;99165.25;;;19.68;62.59
73910;BME280;62245;48.070;7.874;2022-08-21T07:56:36;99170.47;;;19.80;63.33
73910;BME280;62245;48.070;7.874;2022-08-21T07:59:01;99167.75;;;19.80;62.22
73910;BME280;62245;48.070;7.874;2022-08-21T08:01:28;99160.19;;;19.87;61.43
73910;BME280;62245;48.070;7.874;2022-08-21T08:03:54;99163.13;;;19.75;62.29
73910;BME280;62245;48.070;7.874;2022-08-21T08:06:20;99156.38;;;19.83;62.71
73910;BME280;62245;48.070;7.874;2022-08-21T08:08:45;99160.44;;;19.80;62.67
73910;BME280;62245;48.070;7.874;2022-08-21T08:11:12;99141.72;;;19.74;62.42
73910;BME280;62245;48.070;7.874;2022-08-21T08:13:41;99152.31;;;19.85;61.88
73910;BME280;62245;48.070;7.874;2022-08-21T08:16:07;99146.34;;;19.83;62.52
73910;BME280;62245;48.070;7.874;2022-08-21T08:18:33;99141.78;;;19.89;61.30
73910;BME280;62245;48.070;7.874;2022-08-21T08:20:58;99125.22;;;19.75;61.30
73910;BME280;62245;48.070;7.874;2022-08-21T08:23:24;99137.72;;;19.86;62.57
73910;BME280;62245;48.070;7.874;2022-08-21T08:25:50;99133.38;;;19.90;63.47
73910;BME280;62245;48.070;7.874;2022-08-21T08:28:15;99133.94;;;19.98;63.20
73910;BME280;62245;48.070;7.874;2022-08-21T08:30:41;99125.53;;;19.99;62.56
73910;BME280;62245;48.070;7.874;2022-08-21T08:33:07;99127.72;;;20.12;62.77
73910;BME280;62245;48.070;7.874;2022-08-21T08:35:33;99125.31;;;20.21;60.63
73910;BME280;62245;48.070;7.874;2022-08-21T08:37:58;99124.22;;;20.27;60.63
73910;BME280;62245;48.070;7.874;2022-08-21T08:40:39;99126.69;;;20.44;61.49
73910;BME280;62245;48.070;7.874;2022-08-21T08:43:07;99129.66;;;20.52;60.33
73910;BME280;62245;48.070;7.874;2022-08-21T08:45:36;99128.56;;;20.58;59.11
73910;BME280;62245;48.070;7.874;2022-08-21T08:48:05;99115.84;;;20.64;58.99
73910;BME280;62245;48.070;7.874;2022-08-21T08:50:52;99125.53;;;20.95;60.58
73910;BME280;62245;48.070;7.874;2022-08-21T08:53:30;99126.81;;;21.28;59.32
73910;BME280;62245;48.070;7.874;2022-08-21T08:55:57;99117.28;;;21.41;58.53
73910;BME280;62245;48.070;7.874;2022-08-21T08:58:32;99110.72;;;21.52;57.46
73910;BME280;62245;48.070;7.874;2022-08-21T09:00:59;99104.19;;;21.58;55.45
73910;BME280;62245;48.070;7.874;2022-08-21T09:03:26;99106.56;;;21.70;57.70
73910;BME280;62245;48.070;7.874;2022-08-21T09:08:42;99102.84;;;22.05;58.54
73910;BME280;62245;48.070;7.874;2022-08-21T09:11:29;99100.56;;;22.17;57.53
73910;BME280;62245;48.070;7.874;2022-08-21T09:14:23;99101.50;;;22.36;56.50
73910;BME280;62245;48.070;7.874;2022-08-21T09:16:58;99098.72;;;22.46;57.71
73910;BME280;62245;48.070;7.874;2022-08-21T09:19:29;99099.31;;;22.38;56.24
73910;BME280;62245;48.070;7.874;2022-08-21T09:24:47;99096.41;;;22.30;56.34
73910;BME280;62245;48.070;7.874;2022-08-21T09:27:17;99087.84;;;22.46;56.52
73910;BME280;62245;48.070;7.874;2022-08-21T09:29:47;99086.19;;;22.79;56.65
73910;BME280;62245;48.070;7.874;2022-08-21T09:32:49;99081.66;;;22.93;56.56
73910;BME280;62245;48.070;7.874;2022-08-21T09:35:15;99083.00;;;23.20;55.09
73910;BME280;62245;48.070;7.874;2022-08-21T09:40:27;99083.16;;;23.28;53.51
73910;BME280;62245;48.070;7.874;2022-08-21T09:43:02;99078.31;;;23.25;54.37
73910;BME280;62245;48.070;7.874;2022-08-21T09:45:28;99079.88;;;23.31;54.13
73910;BME280;62245;48.070;7.874;2022-08-21T09:47:53;99079.56;;;23.33;53.77
73910;BME280;62245;48.070;7.874;2022-08-21T09:50:24;99071.13;;;23.35;53.04
73910;BME280;62245;48.070;7.874;2022-08-21T09:52:55;99071.47;;;23.28;53.07
73910;BME280;62245;48.070;7.874;2022-08-21T09:55:51;99071.75;;;23.26;53.23
73910;BME280;62245;48.070;7.874;2022-08-21T09:58:37;99061.63;;;23.32;53.14
73910;BME280;62245;48.070;7.874;2022-08-21T10:01:04;99057.09;;;23.65;54.54
73910;BME280;62245;48.070;7.874;2022-08-21T10:03:30;99058.88;;;23.75;53.88
73910;BME280;62245;48.070;7.874;2022-08-21T10:06:02;99053.13;;;23.76;52.47
73910;BME280;62245;48.070;7.874;2022-08-21T10:08:32;99047.44;;;23.54;53.15
73910;BME280;62245;48.070;7.874;2022-08-21T10:11:04;99046.34;;;23.74;54.09
73910;BME280;62245;48.070;7.874;2022-08-21T10:16:16;99042.78;;;23.78;53.19
73910;BME280;62245;48.070;7.874;2022-08-21T10:29:55;99028.00;;;24.30;48.89
73910;BME280;62245;48.070;7.874;2022-08-21T10:32:46;99016.63;;;24.42;50.08
73910;BME280;62245;48.070;7.874;2022-08-21T10:35:23;99016.16;;;24.54;48.61
73910;BME280;62245;48.070;7.874;2022-08-21T10:46:45;99019.63;;;24.87;49.22
73910;BME280;62245;48.070;7.874;2022-08-21T10:52:42;99011.84;;;24.94;47.25
73910;BME280;62245;48.070;7.874;2022-08-21T10:55:16;99011.13;;;25.02;47.97
73910;BME280;62245;48.070;7.874;2022-08-21T10:57:47;99022.44;;;25.09;46.48
73910;BME280;62245;48.070;7.874;2022-08-21T11:00:19;99016.34;;;25.26;47.55
73910;BME280;62245;48.070;7.874;2022-08-21T11:03:08;99011.69;;;25.40;46.70
73910;BME280;62245;48.070;7.874;2022-08-21T11:05:41;99012.31;;;25.37;47.48
73910;BME280;62245;48.070;7.874;2022-08-21T11:08:14;99007.75;;;25.60;46.34
73910;BME280;62245;48.070;7.874;2022-08-21T11:10:59;99006.50;;;25.66;45.12
73910;BME280;62245;48.070;7.874;2022-08-21T11:13:40;99003.63;;;25.71;45.75
73910;BME280;62245;48.070;7.874;2022-08-21T11:18:45;98999.53;;;26.04;45.25
73910;BME280;62245;48.070;7.874;2022-08-21T11:23:57;98993.00;;;26.14;43.89
73910;BME280;62245;48.070;7.874;2022-08-21T11:26:39;98997.53;;;25.96;43.90
73910;BME280;62245;48.070;7.874;2022-08-21T11:29:27;98998.41;;;26.05;45.11
73910;BME280;62245;48.070;7.874;2022-08-21T11:37:45;98982.75;;;25.97;44.01
73910;BME280;62245;48.070;7.874;2022-08-21T11:43:25;98976.63;;;26.45;43.95
73910;BME280;62245;48.070;7.874;2022-08-21T11:46:10;98981.63;;;26.43;42.48
73910;BME280;62245;48.070;7.874;2022-08-21T11:54:49;98975.75;;;26.66;42.77
73910;BME280;62245;48.070;7.874;2022-08-21T11:57:24;98971.25;;;26.62;42.04
73910;BME280;62245;48.070;7.874;2022-08-21T12:02:23;98977.59;;;26.49;39.95
73910;BME280;62245;48.070;7.874;2022-08-21T12:04:56;98979.06;;;26.46;41.43
73910;BME280;62245;48.070;7.874;2022-08-21T12:10:05;98970.78;;;26.68;41.83
73910;BME280;62245;48.070;7.874;2022-08-21T12:12:33;98964.84;;;26.75;41.40
73910;BME280;62245;48.070;7.874;2022-08-21T12:15:25;98968.59;;;26.88;41.22
73910;BME280;62245;48.070;7.874;2022-08-21T12:20:41;98960.28;;;27.10;40.42
73910;BME280;62245;48.070;7.874;2022-08-21T12:25:43;98963.03;;;27.10;41.96
73910;BME280;62245;48.070;7.874;2022-08-21T12:28:15;98955.63;;;27.11;40.40
73910;BME280;62245;48.070;7.874;2022-08-21T12:30:46;98965.75;;;27.10;39.67
73910;BME280;62245;48.070;7.874;2022-08-21T12:33:23;98971.13;;;27.24;39.29
73910;BME280;62245;48.070;7.874;2022-08-21T12:35:52;98959.53;;;26.79;39.66
73910;BME280;62245;48.070;7.874;2022-08-21T12:38:26;98958.41;;;26.71;39.21
73910;BME280;62245;48.070;7.874;2022-08-21T12:40:59;98954.69;;;26.76;40.12
73910;BME280;62245;48.070;7.874;2022-08-21T12:43:38;98950.38;;;26.83;41.76
73910;BME280;62245;48.070;7.874;2022-08-21T12:46:06;98957.41;;;27.07;40.22
73910;BME280;62245;48.070;7.874;2022-08-21T12:49:09;98950.78;;;27.16;40.90
73910;BME280;62245;48.070;7.874;2022-08-21T12:51:48;98951.28;;;27.35;39.73
73910;BME280;62245;48.070;7.874;2022-08-21T12:54:37;98943.88;;;27.45;39.57
73910;BME280;62245;48.070;7.874;2022-08-21T12:57:04;98949.34;;;27.45;39.85
73910;BME280;62245;48.070;7.874;2022-08-21T12:59:31;98946.47;;;27.75;39.96
73910;BME280;62245;48.070;7.874;2022-08-21T13:01:59;98931.94;;;27.84;40.14
73910;BME280;62245;48.070;7.874;2022-08-21T13:04:36;98940.66;;;27.77;39.11
73910;BME280;62245;48.070;7.874;2022-08-21T13:07:14;98932.09;;;27.78;39.54
73910;BME280;62245;48.070;7.874;2022-08-21T13:09:51;98930.47;;;27.95;39.49
73910;BME280;62245;48.070;7.874;2022-08-21T13:12:20;98930.44;;;28.03;38.85
73910;BME280;62245;48.070;7.874;2022-08-21T13:14:46;98943.72;;;27.93;38.30
73910;BME280;62245;48.070;7.874;2022-08-21T13:17:16;98937.09;;;27.76;37.66
73910;BME280;62245;48.070;7.874;2022-08-21T13:19:41;98935.31;;;27.89;38.61
73910;BME280;62245;48.070;7.874;2022-08-21T13:22:14;98934.00;;;27.95;39.92
73910;BME280;62245;48.070;7.874;2022-08-21T13:24:39;98927.84;;;28.07;39.15
73910;BME280;62245;48.070;7.874;2022-08-21T13:27:17;98921.44;;;27.94;37.03
73910;BME280;62245;48.070;7.874;2022-08-21T13:29:43;98934.69;;;27.84;37.16
73910;BME280;62245;48.070;7.874;2022-08-21T13:32:19;98927.91;;;27.90;39.79
73910;BME280;62245;48.070;7.874;2022-08-21T13:34:46;98927.31;;;28.31;39.15
73910;BME280;62245;48.070;7.874;2022-08-21T13:37:11;98931.50;;;28.28;37.05
73910;BME280;62245;48.070;7.874;2022-08-21T13:39:37;98930.53;;;28.33;38.88
73910;BME280;62245;48.070;7.874;2022-08-21T13:42:09;98923.78;;;28.13;37.79
73910;BME280;62245;48.070;7.874;2022-08-21T13:44:41;98920.22;;;28.30;37.57
73910;BME280;62245;48.070;7.874;2022-08-21T13:47:09;98922.06;;;28.00;35.55
73910;BME280;62245;48.070;7.874;2022-08-21T13:49:39;98914.50;;;27.88;37.02
73910;BME280;62245;48.070;7.874;2022-08-21T13:52:14;98911.66;;;27.76;37.01
73910;BME280;62245;48.070;7.874;2022-08-21T13:54:40;98907.91;;;27.81;37.51
73910;BME280;62245;48.070;7.874;2022-08-21T13:57:24;98912.31;;;27.56;37.54
73910;BME280;62245;48.070;7.874;2022-08-21T13:59:49;98904.84;;;27.82;38.32
73910;BME280;62245;48.070;7.874;2022-08-21T14:02:20;98905.53;;;27.62;36.13
73910;BME280;62245;48.070;7.874;2022-08-21T14:04:57;98895.69;;;27.35;37.07
73910;BME280;62245;48.070;7.874;2022-08-21T14:07:33;98910.19;;;27.27;37.35
73910;BME280;62245;48.070;7.874;2022-08-21T14:10:21;98902.63;;;27.24;38.82
73910;BME280;62245;48.070;7.874;2022-08-21T14:15:15;98898.91;;;27.46;37.40
73910;BME280;62245;48.070;7.874;2022-08-21T14:17:41;98898.72;;;27.51;38.65
73910;BME280;62245;48.070;7.874;2022-08-21T14:20:09;98897.63;;;27.60;38.19
73910;BME280;62245;48.070;7.874;2022-08-21T14:22:45;98896.00;;;27.59;37.25